sensor_id;sensor_type;location;lat;lon;timestamp;P1;durP1;ratioP1;P2;durP2;ratioP2
11541;SDS011;5827;49.482;7.716;2023-03-14T00:00:39;5.63;;;1.80;;
11541;SDS011;5827;49.482;7.716;2023-03-14T00:02:42;3.30;;;1.80;;
11541;SDS011;5827;49.482;7.716;2023-03-14T00:04:43;3.03;;;1.70;;
11541;SDS011;5827;49.482;7.716;2023-03-14T00:06:45;4.65;;;1.95;;
11541;SDS011;5827;49.482;7.716;2023-03-14T00:08:47;3.50;;;1.85;;
11541;SDS011;5827;49.482;7.716;2023-03-14T00:10:49;4.38;;;2.10;;
11541;SDS011;5827;49.482;7.716;2023-03-14T00:12:50;5.82;;;1.95;;
11541;SDS011;5827;49.482;7.716;2023-03-14T00:14:52;4.40;;;1.95;;
11541;SDS011;5827;49.482;7.716;2023-03-14T00:16:53;5.10;;;1.90;;
11541;SDS011;5827;49.482;7.716;2023-03-14T00:18:56;3.95;;;1.90;;
11541;SDS011;5827;49.482;7.716;2023-03-14T00:20:59;4.25;;;2.10;;
11541;SDS011;5827;49.482;7.716;2023-03-14T00:23:01;4.25;;;1.80;;
11541;SDS011;5827;49.482;7.716;2023-03-14T00:25:02;5.60;;;2.00;;
11541;SDS011;5827;49.482;7.716;2023-03-14T00:27:04;5.80;;;2.13;;
11541;SDS011;5827;49.482;7.716;2023-03-14T00:29:06;4.82;;;2.05;;
11541;SDS011;5827;49.482;7.716;2023-03-14T00:31:08;4.18;;;1.90;;
11541;SDS011;5827;49.482;7.716;2023-03-14T00:33:11;6.25;;;2.10;;
11541;SDS011;5827;49.482;7.716;2023-03-14T00:35:14;5.75;;;2.08;;
11541;SDS011;5827;49.482;7.716;2023-03-14T00:37:16;3.55;;;2.10;;
11541;SDS011;5827;49.482;7.716;2023-03-14T00:39:17;4.68;;;2.00;;
11541;SDS011;5827;49.482;7.716;2023-03-14T00:41:19;7.40;;;2.13;;
11541;SDS011;5827;49.482;7.716;2023-03-14T00:43:23;5.47;;;2.08;;
11541;SDS011;5827;49.482;7.716;2023-03-14T00:45:24;7.17;;;2.27;;
11541;SDS011;5827;49.482;7.716;2023-03-14T00:47:26;6.45;;;2.10;;
11541;SDS011;5827;49.482;7.716;2023-03-14T00:49:27;5.00;;;2.08;;
11541;SDS011;5827;49.482;7.716;2023-03-14T00:51:30;5.57;;;2.10;;
11541;SDS011;5827;49.482;7.716;2023-03-14T00:53:34;4.43;;;1.90;;
11541;SDS011;5827;49.482;7.716;2023-03-14T00:55:37;7.53;;;2.13;;
11541;SDS011;5827;49.482;7.716;2023-03-14T00:57:39;4.55;;;2.15;;
11541;SDS011;5827;49.482;7.716;2023-03-14T00:59:40;3.88;;;2.17;;
11541;SDS011;5827;49.482;7.716;2023-03-14T01:01:42;5.25;;;1.90;;
11541;SDS011;5827;49.482;7.716;2023-03-14T01:03:44;7.30;;;2.25;;
11541;SDS011;5827;49.482;7.716;2023-03-14T01:05:45;6.10;;;1.95;;
11541;SDS011;5827;49.482;7.716;2023-03-14T01:07:48;5.22;;;2.00;;
11541;SDS011;5827;49.482;7.716;2023-03-14T01:09:51;5.07;;;2.00;;
11541;SDS011;5827;49.482;7.716;2023-03-14T01:11:53;4.53;;;2.10;;
11541;SDS011;5827;49.482;7.716;2023-03-14T01:13:54;5.15;;;2.00;;
11541;SDS011;5827;49.482;7.716;2023-03-14T01:16:00;7.20;;;2.40;;
11541;SDS011;5827;49.482;7.716;2023-03-14T01:18:03;4.78;;;2.10;;
11541;SDS011;5827;49.482;7.716;2023-03-14T01:20:05;6.95;;;2.30;;
11541;SDS011;5827;49.482;7.716;2023-03-14T01:22:09;5.18;;;2.10;;
11541;SDS011;5827;49.482;7.716;2023-03-14T01:24:11;5.35;;;2.10;;
11541;SDS011;5827;49.482;7.716;2023-03-14T01:26:15;5.50;;;2.10;;
11541;SDS011;5827;49.482;7.716;2023-03-14T01:28:18;4.03;;;2.03;;
11541;SDS011;5827;49.482;7.716;2023-03-14T01:30:20;5.85;;;2.13;;
11541;SDS011;5827;49.482;7.716;2023-03-14T01:32:22;6.88;;;2.30;;
11541;SDS011;5827;49.482;7.716;2023-03-14T01:34:23;6.93;;;2.35;;
11541;SDS011;5827;49.482;7.716;2023-03-14T01:36:25;6.80;;;2.13;;
11541;SDS011;5827;49.482;7.716;2023-03-14T01:38:27;5.85;;;2.08;;
11541;SDS011;5827;49.482;7.716;2023-03-14T01:40:30;7.00;;;2.22;;
11541;SDS011;5827;49.482;7.716;2023-03-14T01:42:31;6.78;;;2.53;;
11541;SDS011;5827;49.482;7.716;2023-03-14T01:44:46;5.45;;;2.28;;
11541;SDS011;5827;49.482;7.716;2023-03-14T01:46:49;5.88;;;2.00;;
11541;SDS011;5827;49.482;7.716;2023-03-14T01:48:52;5.95;;;2.03;;
11541;SDS011;5827;49.482;7.716;2023-03-14T01:50:58;6.65;;;2.20;;
11541;SDS011;5827;49.482;7.716;2023-03-14T01:53:02;5.40;;;2.30;;
11541;SDS011;5827;49.482;7.716;2023-03-14T01:55:04;6.70;;;2.55;;
11541;SDS011;5827;49.482;7.716;2023-03-14T01:57:09;5.97;;;2.03;;
11541;SDS011;5827;49.482;7.716;2023-03-14T01:59:14;5.55;;;2.10;;
11541;SDS011;5827;49.482;7.716;2023-03-14T02:01:16;5.57;;;2.10;;
11541;SDS011;5827;49.482;7.716;2023-03-14T02:03:21;5.97;;;2.35;;
11541;SDS011;5827;49.482;7.716;2023-03-14T02:05:25;4.93;;;2.05;;
11541;SDS011;5827;49.482;7.716;2023-03-14T02:07:30;5.13;;;2.10;;
11541;SDS011;5827;49.482;7.716;2023-03-14T02:09:36;3.90;;;2.00;;
11541;SDS011;5827;49.482;7.716;2023-03-14T02:11:40;5.78;;;2.20;;
11541;SDS011;5827;49.482;7.716;2023-03-14T02:13:43;4.70;;;2.00;;
11541;SDS011;5827;49.482;7.716;2023-03-14T02:15:45;6.68;;;2.20;;
11541;SDS011;5827;49.482;7.716;2023-03-14T02:17:46;6.17;;;2.17;;
11541;SDS011;5827;49.482;7.716;2023-03-14T02:19:50;7.67;;;2.33;;
11541;SDS011;5827;49.482;7.716;2023-03-14T02:22:05;4.80;;;2.10;;
11541;SDS011;5827;49.482;7.716;2023-03-14T02:24:13;6.93;;;2.20;;
11541;SDS011;5827;49.482;7.716;2023-03-14T02:26:21;5.75;;;2.10;;
11541;SDS011;5827;49.482;7.716;2023-03-14T02:28:28;4.15;;;1.85;;
11541;SDS011;5827;49.482;7.716;2023-03-14T02:30:30;5.30;;;2.20;;
11541;SDS011;5827;49.482;7.716;2023-03-14T02:32:34;6.70;;;2.33;;
11541;SDS011;5827;49.482;7.716;2023-03-14T02:34:38;4.90;;;2.10;;
11541;SDS011;5827;49.482;7.716;2023-03-14T02:36:43;5.80;;;2.33;;
11541;SDS011;5827;49.482;7.716;2023-03-14T02:38:46;6.35;;;2.10;;
11541;SDS011;5827;49.482;7.716;2023-03-14T02:40:51;5.20;;;2.08;;
11541;SDS011;5827;49.482;7.716;2023-03-14T02:42:52;4.10;;;1.90;;
11541;SDS011;5827;49.482;7.716;2023-03-14T02:44:58;5.72;;;2.05;;
11541;SDS011;5827;49.482;7.716;2023-03-14T02:47:26;3.20;;;1.83;;
11541;SDS011;5827;49.482;7.716;2023-03-14T02:49:29;5.30;;;1.97;;
11541;SDS011;5827;49.482;7.716;2023-03-14T02:51:34;4.93;;;2.03;;
11541;SDS011;5827;49.482;7.716;2023-03-14T02:53:36;4.30;;;1.83;;
11541;SDS011;5827;49.482;7.716;2023-03-14T02:55:39;5.15;;;2.05;;
11541;SDS011;5827;49.482;7.716;2023-03-14T02:57:41;5.53;;;1.90;;
11541;SDS011;5827;49.482;7.716;2023-03-14T02:59:42;4.93;;;1.88;;
11541;SDS011;5827;49.482;7.716;2023-03-14T03:01:45;6.45;;;1.88;;
11541;SDS011;5827;49.482;7.716;2023-03-14T03:03:47;4.85;;;2.03;;
11541;SDS011;5827;49.482;7.716;2023-03-14T03:05:49;4.50;;;1.95;;
11541;SDS011;5827;49.482;7.716;2023-03-14T03:07:51;6.75;;;2.03;;
11541;SDS011;5827;49.482;7.716;2023-03-14T03:09:53;4.13;;;1.95;;
11541;SDS011;5827;49.482;7.716;2023-03-14T03:11:54;5.47;;;1.98;;
11541;SDS011;5827;49.482;7.716;2023-03-14T03:13:56;7.70;;;2.20;;
11541;SDS011;5827;49.482;7.716;2023-03-14T03:15:57;6.45;;;2.17;;
11541;SDS011;5827;49.482;7.716;2023-03-14T03:18:00;4.40;;;1.83;;
11541;SDS011;5827;49.482;7.716;2023-03-14T03:20:02;5.55;;;1.83;;
11541;SDS011;5827;49.482;7.716;2023-03-14T03:22:04;6.10;;;2.00;;
11541;SDS011;5827;49.482;7.716;2023-03-14T03:24:06;6.00;;;2.25;;
11541;SDS011;5827;49.482;7.716;2023-03-14T03:26:08;6.85;;;2.10;;
11541;SDS011;5827;49.482;7.716;2023-03-14T03:28:10;7.23;;;1.87;;
11541;SDS011;5827;49.482;7.716;2023-03-14T03:30:12;6.95;;;1.90;;
11541;SDS011;5827;49.482;7.716;2023-03-14T03:32:13;6.32;;;2.10;;
11541;SDS011;5827;49.482;7.716;2023-03-14T03:34:16;6.18;;;1.90;;
11541;SDS011;5827;49.482;7.716;2023-03-14T03:36:20;5.15;;;2.10;;
11541;SDS011;5827;49.482;7.716;2023-03-14T03:38:22;5.32;;;1.92;;
11541;SDS011;5827;49.482;7.716;2023-03-14T03:40:24;4.28;;;1.88;;
11541;SDS011;5827;49.482;7.716;2023-03-14T03:42:25;7.03;;;2.08;;
11541;SDS011;5827;49.482;7.716;2023-03-14T03:44:27;6.55;;;1.92;;
11541;SDS011;5827;49.482;7.716;2023-03-14T03:46:28;4.05;;;1.75;;
11541;SDS011;5827;49.482;7.716;2023-03-14T03:48:30;7.35;;;2.00;;
11541;SDS011;5827;49.482;7.716;2023-03-14T03:50:33;6.37;;;2.10;;
11541;SDS011;5827;49.482;7.716;2023-03-14T03:52:34;5.33;;;2.13;;
11541;SDS011;5827;49.482;7.716;2023-03-14T03:54:36;7.53;;;2.00;;
11541;SDS011;5827;49.482;7.716;2023-03-14T03:56:37;6.72;;;2.17;;
11541;SDS011;5827;49.482;7.716;2023-03-14T03:58:39;6.85;;;2.10;;
11541;SDS011;5827;49.482;7.716;2023-03-14T04:00:42;7.15;;;2.30;;
11541;SDS011;5827;49.482;7.716;2023-03-14T04:02:43;6.13;;;2.10;;
11541;SDS011;5827;49.482;7.716;2023-03-14T04:04:45;4.93;;;1.80;;
11541;SDS011;5827;49.482;7.716;2023-03-14T04:06:48;6.50;;;2.00;;
11541;SDS011;5827;49.482;7.716;2023-03-14T04:08:49;6.97;;;2.00;;
11541;SDS011;5827;49.482;7.716;2023-03-14T04:10:53;7.75;;;2.00;;
11541;SDS011;5827;49.482;7.716;2023-03-14T04:12:56;7.60;;;2.13;;
11541;SDS011;5827;49.482;7.716;2023-03-14T04:14:57;5.30;;;2.10;;
11541;SDS011;5827;49.482;7.716;2023-03-14T04:16:59;4.88;;;1.90;;
11541;SDS011;5827;49.482;7.716;2023-03-14T04:19:00;6.07;;;1.80;;
11541;SDS011;5827;49.482;7.716;2023-03-14T04:21:02;5.70;;;2.08;;
11541;SDS011;5827;49.482;7.716;2023-03-14T04:23:05;5.82;;;2.08;;
11541;SDS011;5827;49.482;7.716;2023-03-14T04:25:07;5.20;;;1.98;;
11541;SDS011;5827;49.482;7.716;2023-03-14T04:27:09;7.22;;;1.92;;
11541;SDS011;5827;49.482;7.716;2023-03-14T04:29:11;6.22;;;2.00;;
11541;SDS011;5827;49.482;7.716;2023-03-14T04:31:13;4.72;;;1.80;;
11541;SDS011;5827;49.482;7.716;2023-03-14T04:33:18;4.82;;;1.80;;
11541;SDS011;5827;49.482;7.716;2023-03-14T04:35:19;7.10;;;2.20;;
11541;SDS011;5827;49.482;7.716;2023-03-14T04:37:21;4.95;;;2.00;;
11541;SDS011;5827;49.482;7.716;2023-03-14T04:39:24;5.72;;;1.80;;
11541;SDS011;5827;49.482;7.716;2023-03-14T04:41:25;5.63;;;1.70;;
11541;SDS011;5827;49.482;7.716;2023-03-14T04:43:27;4.55;;;1.73;;
11541;SDS011;5827;49.482;7.716;2023-03-14T04:45:28;5.78;;;1.95;;
11541;SDS011;5827;49.482;7.716;2023-03-14T04:47:30;8.20;;;2.00;;
11541;SDS011;5827;49.482;7.716;2023-03-14T04:49:31;5.10;;;1.88;;
11541;SDS011;5827;49.482;7.716;2023-03-14T04:51:33;4.20;;;1.50;;
11541;SDS011;5827;49.482;7.716;2023-03-14T04:53:34;4.55;;;1.58;;
11541;SDS011;5827;49.482;7.716;2023-03-14T04:55:38;3.30;;;1.70;;
11541;SDS011;5827;49.482;7.716;2023-03-14T04:57:39;5.28;;;1.77;;
11541;SDS011;5827;49.482;7.716;2023-03-14T04:59:41;3.75;;;1.67;;
11541;SDS011;5827;49.482;7.716;2023-03-14T05:01:42;3.92;;;1.70;;
11541;SDS011;5827;49.482;7.716;2023-03-14T05:03:44;3.40;;;1.52;;
11541;SDS011;5827;49.482;7.716;2023-03-14T05:05:45;5.28;;;1.90;;
11541;SDS011;5827;49.482;7.716;2023-03-14T05:07:47;3.47;;;1.60;;
11541;SDS011;5827;49.482;7.716;2023-03-14T05:09:49;6.20;;;1.75;;
11541;SDS011;5827;49.482;7.716;2023-03-14T05:11:52;3.80;;;1.60;;
11541;SDS011;5827;49.482;7.716;2023-03-14T05:13:53;3.97;;;1.95;;
11541;SDS011;5827;49.482;7.716;2023-03-14T05:16:02;3.80;;;1.58;;
11541;SDS011;5827;49.482;7.716;2023-03-14T05:18:05;3.30;;;1.60;;
11541;SDS011;5827;49.482;7.716;2023-03-14T05:20:07;5.13;;;1.75;;
11541;SDS011;5827;49.482;7.716;2023-03-14T05:22:12;4.50;;;1.50;;
11541;SDS011;5827;49.482;7.716;2023-03-14T05:24:14;4.70;;;1.70;;
11541;SDS011;5827;49.482;7.716;2023-03-14T05:26:15;4.43;;;1.35;;
11541;SDS011;5827;49.482;7.716;2023-03-14T05:28:18;2.90;;;1.40;;
11541;SDS011;5827;49.482;7.716;2023-03-14T05:30:20;3.53;;;1.30;;
11541;SDS011;5827;49.482;7.716;2023-03-14T05:32:22;3.72;;;1.30;;
11541;SDS011;5827;49.482;7.716;2023-03-14T05:34:24;4.80;;;1.50;;
11541;SDS011;5827;49.482;7.716;2023-03-14T05:36:25;3.65;;;1.52;;
11541;SDS011;5827;49.482;7.716;2023-03-14T05:38:27;3.63;;;1.65;;
11541;SDS011;5827;49.482;7.716;2023-03-14T05:40:28;5.10;;;1.40;;
11541;SDS011;5827;49.482;7.716;2023-03-14T05:42:30;3.67;;;1.85;;
11541;SDS011;5827;49.482;7.716;2023-03-14T05:44:33;4.20;;;1.48;;
11541;SDS011;5827;49.482;7.716;2023-03-14T05:46:34;4.10;;;1.40;;
11541;SDS011;5827;49.482;7.716;2023-03-14T05:48:36;4.75;;;1.58;;
11541;SDS011;5827;49.482;7.716;2023-03-14T05:50:37;3.70;;;1.60;;
11541;SDS011;5827;49.482;7.716;2023-03-14T05:52:39;6.10;;;1.90;;
11541;SDS011;5827;49.482;7.716;2023-03-14T05:54:40;5.22;;;1.98;;
11541;SDS011;5827;49.482;7.716;2023-03-14T05:56:42;6.72;;;1.70;;
11541;SDS011;5827;49.482;7.716;2023-03-14T05:58:43;3.75;;;1.55;;
11541;SDS011;5827;49.482;7.716;2023-03-14T06:00:46;4.88;;;1.73;;
11541;SDS011;5827;49.482;7.716;2023-03-14T06:02:48;5.23;;;1.70;;
11541;SDS011;5827;49.482;7.716;2023-03-14T06:04:49;3.72;;;1.50;;
11541;SDS011;5827;49.482;7.716;2023-03-14T06:06:51;4.80;;;1.70;;
11541;SDS011;5827;49.482;7.716;2023-03-14T06:08:52;4.30;;;1.80;;
11541;SDS011;5827;49.482;7.716;2023-03-14T06:10:56;4.70;;;1.80;;
11541;SDS011;5827;49.482;7.716;2023-03-14T06:12:58;4.95;;;1.80;;
11541;SDS011;5827;49.482;7.716;2023-03-14T06:15:00;7.50;;;1.92;;
11541;SDS011;5827;49.482;7.716;2023-03-14T06:17:02;4.47;;;1.90;;
11541;SDS011;5827;49.482;7.716;2023-03-14T06:19:04;6.40;;;1.90;;
11541;SDS011;5827;49.482;7.716;2023-03-14T06:21:06;4.50;;;1.85;;
11541;SDS011;5827;49.482;7.716;2023-03-14T06:23:08;4.97;;;1.75;;
11541;SDS011;5827;49.482;7.716;2023-03-14T06:25:09;4.05;;;1.90;;
11541;SDS011;5827;49.482;7.716;2023-03-14T06:27:12;5.90;;;2.38;;
11541;SDS011;5827;49.482;7.716;2023-03-14T06:29:13;5.05;;;2.05;;
11541;SDS011;5827;49.482;7.716;2023-03-14T06:31:15;7.03;;;1.92;;
11541;SDS011;5827;49.482;7.716;2023-03-14T06:33:18;7.13;;;2.08;;
11541;SDS011;5827;49.482;7.716;2023-03-14T06:35:20;6.57;;;1.98;;
11541;SDS011;5827;49.482;7.716;2023-03-14T06:37:22;6.32;;;2.08;;
11541;SDS011;5827;49.482;7.716;2023-03-14T06:39:23;5.43;;;1.80;;
11541;SDS011;5827;49.482;7.716;2023-03-14T06:41:25;7.68;;;2.00;;
11541;SDS011;5827;49.482;7.716;2023-03-14T06:43:26;6.05;;;1.90;;
11541;SDS011;5827;49.482;7.716;2023-03-14T06:45:28;6.00;;;2.05;;
11541;SDS011;5827;49.482;7.716;2023-03-14T06:47:29;5.47;;;1.80;;
11541;SDS011;5827;49.482;7.716;2023-03-14T06:49:32;6.73;;;1.90;;
11541;SDS011;5827;49.482;7.716;2023-03-14T06:51:34;5.65;;;1.88;;
11541;SDS011;5827;49.482;7.716;2023-03-14T06:53:35;6.28;;;2.05;;
11541;SDS011;5827;49.482;7.716;2023-03-14T06:55:37;3.70;;;1.60;;
11541;SDS011;5827;49.482;7.716;2023-03-14T06:57:38;5.20;;;1.90;;
11541;SDS011;5827;49.482;7.716;2023-03-14T06:59:40;5.20;;;2.03;;
11541;SDS011;5827;49.482;7.716;2023-03-14T07:01:41;4.73;;;1.87;;
11541;SDS011;5827;49.482;7.716;2023-03-14T07:03:43;5.57;;;2.03;;
11541;SDS011;5827;49.482;7.716;2023-03-14T07:05:45;4.60;;;1.80;;
11541;SDS011;5827;49.482;7.716;2023-03-14T07:07:47;4.22;;;1.77;;
11541;SDS011;5827;49.482;7.716;2023-03-14T07:09:48;4.43;;;1.77;;
11541;SDS011;5827;49.482;7.716;2023-03-14T07:11:50;4.22;;;2.10;;
11541;SDS011;5827;49.482;7.716;2023-03-14T07:13:51;4.17;;;1.63;;
11541;SDS011;5827;49.482;7.716;2023-03-14T07:15:53;4.03;;;1.80;;
11541;SDS011;5827;49.482;7.716;2023-03-14T07:17:55;4.78;;;1.90;;
11541;SDS011;5827;49.482;7.716;2023-03-14T07:19:56;3.93;;;1.47;;
11541;SDS011;5827;49.482;7.716;2023-03-14T07:22:00;3.85;;;1.60;;
11541;SDS011;5827;49.482;7.716;2023-03-14T07:24:02;2.88;;;1.42;;
11541;SDS011;5827;49.482;7.716;2023-03-14T07:26:04;3.80;;;1.50;;
11541;SDS011;5827;49.482;7.716;2023-03-14T07:28:06;3.57;;;1.60;;
11541;SDS011;5827;49.482;7.716;2023-03-14T07:30:08;2.30;;;1.40;;
11541;SDS011;5827;49.482;7.716;2023-03-14T07:32:10;4.32;;;1.75;;
11541;SDS011;5827;49.482;7.716;2023-03-14T07:34:14;3.47;;;1.60;;
11541;SDS011;5827;49.482;7.716;2023-03-14T07:36:16;2.67;;;1.40;;
11541;SDS011;5827;49.482;7.716;2023-03-14T07:38:19;2.10;;;1.57;;
11541;SDS011;5827;49.482;7.716;2023-03-14T07:40:21;2.30;;;1.33;;
11541;SDS011;5827;49.482;7.716;2023-03-14T07:42:22;3.05;;;1.50;;
11541;SDS011;5827;49.482;7.716;2023-03-14T07:44:24;4.05;;;1.40;;
11541;SDS011;5827;49.482;7.716;2023-03-14T07:46:26;3.50;;;1.23;;
11541;SDS011;5827;49.482;7.716;2023-03-14T07:48:27;3.75;;;1.50;;
11541;SDS011;5827;49.482;7.716;2023-03-14T07:50:29;1.90;;;1.30;;
11541;SDS011;5827;49.482;7.716;2023-03-14T07:52:30;3.53;;;1.33;;
11541;SDS011;5827;49.482;7.716;2023-03-14T07:54:33;2.45;;;1.48;;
11541;SDS011;5827;49.482;7.716;2023-03-14T07:56:35;3.05;;;2.00;;
11541;SDS011;5827;49.482;7.716;2023-03-14T07:58:36;2.33;;;1.40;;
11541;SDS011;5827;49.482;7.716;2023-03-14T08:00:38;3.83;;;1.45;;
11541;SDS011;5827;49.482;7.716;2023-03-14T08:02:40;1.63;;;1.03;;
11541;SDS011;5827;49.482;7.716;2023-03-14T08:04:41;2.00;;;1.50;;
11541;SDS011;5827;49.482;7.716;2023-03-14T08:06:43;2.22;;;1.60;;
11541;SDS011;5827;49.482;7.716;2023-03-14T08:08:44;1.97;;;1.10;;
11541;SDS011;5827;49.482;7.716;2023-03-14T08:10:47;1.65;;;1.13;;
11541;SDS011;5827;49.482;7.716;2023-03-14T08:12:49;2.63;;;1.15;;
11541;SDS011;5827;49.482;7.716;2023-03-14T08:14:50;3.40;;;1.13;;
11541;SDS011;5827;49.482;7.716;2023-03-14T08:16:52;1.80;;;1.02;;
11541;SDS011;5827;49.482;7.716;2023-03-14T08:18:53;1.77;;;1.00;;
11541;SDS011;5827;49.482;7.716;2023-03-14T08:20:56;1.95;;;1.00;;
11541;SDS011;5827;49.482;7.716;2023-03-14T08:22:58;2.47;;;1.05;;
11541;SDS011;5827;49.482;7.716;2023-03-14T08:25:00;3.72;;;1.20;;
11541;SDS011;5827;49.482;7.716;2023-03-14T08:27:02;3.10;;;1.10;;
11541;SDS011;5827;49.482;7.716;2023-03-14T08:29:04;2.25;;;1.00;;
11541;SDS011;5827;49.482;7.716;2023-03-14T08:31:06;2.78;;;1.00;;
11541;SDS011;5827;49.482;7.716;2023-03-14T08:33:07;1.90;;;1.10;;
11541;SDS011;5827;49.482;7.716;2023-03-14T08:35:09;1.60;;;1.20;;
11541;SDS011;5827;49.482;7.716;2023-03-14T08:37:10;1.27;;;1.02;;
11541;SDS011;5827;49.482;7.716;2023-03-14T08:39:12;2.25;;;1.20;;
11541;SDS011;5827;49.482;7.716;2023-03-14T08:41:13;1.92;;;1.20;;
11541;SDS011;5827;49.482;7.716;2023-03-14T08:43:16;2.15;;;1.20;;
11541;SDS011;5827;49.482;7.716;2023-03-14T08:45:18;1.80;;;1.30;;
11541;SDS011;5827;49.482;7.716;2023-03-14T08:47:19;2.15;;;1.30;;
11541;SDS011;5827;49.482;7.716;2023-03-14T08:49:21;2.17;;;1.20;;
11541;SDS011;5827;49.482;7.716;2023-03-14T08:51:22;2.30;;;1.23;;
11541;SDS011;5827;49.482;7.716;2023-03-14T08:53:24;3.35;;;2.88;;
11541;SDS011;5827;49.482;7.716;2023-03-14T08:55:25;2.30;;;1.60;;
11541;SDS011;5827;49.482;7.716;2023-03-14T08:57:27;2.50;;;2.30;;
11541;SDS011;5827;49.482;7.716;2023-03-14T08:59:30;2.97;;;2.67;;
11541;SDS011;5827;49.482;7.716;2023-03-14T09:01:32;2.67;;;2.30;;
11541;SDS011;5827;49.482;7.716;2023-03-14T09:03:33;2.83;;;1.80;;
11541;SDS011;5827;49.482;7.716;2023-03-14T09:05:35;3.83;;;2.85;;
11541;SDS011;5827;49.482;7.716;2023-03-14T09:07:37;2.40;;;2.20;;
11541;SDS011;5827;49.482;7.716;2023-03-14T09:09:39;1.90;;;1.60;;
11541;SDS011;5827;49.482;7.716;2023-03-14T09:11:41;2.28;;;1.92;;
11541;SDS011;5827;49.482;7.716;2023-03-14T09:13:42;1.73;;;1.30;;
11541;SDS011;5827;49.482;7.716;2023-03-14T09:15:45;2.20;;;1.10;;
11541;SDS011;5827;49.482;7.716;2023-03-14T09:17:51;2.70;;;1.38;;
11541;SDS011;5827;49.482;7.716;2023-03-14T09:19:53;1.40;;;0.93;;
11541;SDS011;5827;49.482;7.716;2023-03-14T09:21:55;1.50;;;1.00;;
11541;SDS011;5827;49.482;7.716;2023-03-14T09:23:56;1.30;;;0.90;;
11541;SDS011;5827;49.482;7.716;2023-03-14T09:25:58;1.50;;;1.30;;
11541;SDS011;5827;49.482;7.716;2023-03-14T09:28:00;2.58;;;1.10;;
11541;SDS011;5827;49.482;7.716;2023-03-14T09:30:02;1.00;;;0.80;;
11541;SDS011;5827;49.482;7.716;2023-03-14T09:32:06;1.38;;;1.27;;
11541;SDS011;5827;49.482;7.716;2023-03-14T09:34:08;1.42;;;1.10;;
11541;SDS011;5827;49.482;7.716;2023-03-14T09:36:10;1.13;;;1.10;;
11541;SDS011;5827;49.482;7.716;2023-03-14T09:38:12;1.70;;;1.30;;
11541;SDS011;5827;49.482;7.716;2023-03-14T09:40:15;2.00;;;1.45;;
11541;SDS011;5827;49.482;7.716;2023-03-14T09:42:18;2.42;;;1.90;;
11541;SDS011;5827;49.482;7.716;2023-03-14T09:44:24;1.75;;;1.10;;
11541;SDS011;5827;49.482;7.716;2023-03-14T09:46:28;2.10;;;1.90;;
11541;SDS011;5827;49.482;7.716;2023-03-14T09:48:33;1.92;;;1.80;;
11541;SDS011;5827;49.482;7.716;2023-03-14T09:50:36;2.75;;;2.08;;
11541;SDS011;5827;49.482;7.716;2023-03-14T09:52:41;1.30;;;1.10;;
11541;SDS011;5827;49.482;7.716;2023-03-14T09:54:47;0.98;;;0.98;;
11541;SDS011;5827;49.482;7.716;2023-03-14T09:56:51;1.65;;;0.90;;
11541;SDS011;5827;49.482;7.716;2023-03-14T09:58:53;1.00;;;0.90;;
11541;SDS011;5827;49.482;7.716;2023-03-14T10:00:57;1.40;;;0.70;;
11541;SDS011;5827;49.482;7.716;2023-03-14T10:03:12;1.75;;;1.00;;
11541;SDS011;5827;49.482;7.716;2023-03-14T10:05:24;0.93;;;0.80;;
11541;SDS011;5827;49.482;7.716;2023-03-14T10:07:28;1.50;;;0.80;;
11541;SDS011;5827;49.482;7.716;2023-03-14T10:09:32;1.67;;;0.88;;
11541;SDS011;5827;49.482;7.716;2023-03-14T10:11:35;1.08;;;0.85;;
11541;SDS011;5827;49.482;7.716;2023-03-14T10:13:39;1.00;;;1.00;;
11541;SDS011;5827;49.482;7.716;2023-03-14T10:15:51;1.00;;;0.90;;
11541;SDS011;5827;49.482;7.716;2023-03-14T10:17:54;0.80;;;0.80;;
11541;SDS011;5827;49.482;7.716;2023-03-14T10:19:56;1.95;;;0.90;;
11541;SDS011;5827;49.482;7.716;2023-03-14T10:22:01;0.93;;;0.82;;
11541;SDS011;5827;49.482;7.716;2023-03-14T10:24:09;1.20;;;0.80;;
11541;SDS011;5827;49.482;7.716;2023-03-14T10:26:18;0.80;;;0.80;;
11541;SDS011;5827;49.482;7.716;2023-03-14T10:28:25;1.17;;;1.00;;
11541;SDS011;5827;49.482;7.716;2023-03-14T10:30:30;1.30;;;1.20;;
11541;SDS011;5827;49.482;7.716;2023-03-14T10:32:36;1.35;;;1.25;;
11541;SDS011;5827;49.482;7.716;2023-03-14T10:34:40;1.70;;;1.27;;
11541;SDS011;5827;49.482;7.716;2023-03-14T10:36:42;0.80;;;0.80;;
11541;SDS011;5827;49.482;7.716;2023-03-14T10:38:45;1.95;;;1.80;;
11541;SDS011;5827;49.482;7.716;2023-03-14T10:40:47;1.85;;;1.58;;
11541;SDS011;5827;49.482;7.716;2023-03-14T10:42:51;2.50;;;1.83;;
11541;SDS011;5827;49.482;7.716;2023-03-14T10:44:55;1.50;;;1.40;;
11541;SDS011;5827;49.482;7.716;2023-03-14T10:47:00;1.60;;;1.50;;
11541;SDS011;5827;49.482;7.716;2023-03-14T10:49:04;1.47;;;1.33;;
11541;SDS011;5827;49.482;7.716;2023-03-14T10:51:07;1.30;;;1.20;;
11541;SDS011;5827;49.482;7.716;2023-03-14T10:53:11;1.15;;;1.10;;
11541;SDS011;5827;49.482;7.716;2023-03-14T10:55:14;1.50;;;1.20;;
11541;SDS011;5827;49.482;7.716;2023-03-14T10:57:15;1.20;;;1.10;;
11541;SDS011;5827;49.482;7.716;2023-03-14T10:59:20;0.93;;;0.90;;
11541;SDS011;5827;49.482;7.716;2023-03-14T11:01:31;0.98;;;0.98;;
11541;SDS011;5827;49.482;7.716;2023-03-14T11:03:40;0.90;;;0.90;;
11541;SDS011;5827;49.482;7.716;2023-03-14T11:05:47;1.23;;;1.10;;
11541;SDS011;5827;49.482;7.716;2023-03-14T11:07:53;1.15;;;1.05;;
11541;SDS011;5827;49.482;7.716;2023-03-14T11:10:03;1.20;;;1.10;;
11541;SDS011;5827;49.482;7.716;2023-03-14T11:12:19;1.10;;;1.10;;
11541;SDS011;5827;49.482;7.716;2023-03-14T11:14:34;1.17;;;1.17;;
11541;SDS011;5827;49.482;7.716;2023-03-14T11:16:42;1.23;;;1.13;;
11541;SDS011;5827;49.482;7.716;2023-03-14T11:19:00;1.10;;;1.10;;
11541;SDS011;5827;49.482;7.716;2023-03-14T11:21:13;1.45;;;1.20;;
11541;SDS011;5827;49.482;7.716;2023-03-14T11:23:22;1.60;;;1.27;;
11541;SDS011;5827;49.482;7.716;2023-03-14T11:25:30;1.00;;;1.00;;
11541;SDS011;5827;49.482;7.716;2023-03-14T11:27:42;1.00;;;0.90;;
11541;SDS011;5827;49.482;7.716;2023-03-14T11:29:47;0.70;;;0.70;;
11541;SDS011;5827;49.482;7.716;2023-03-14T11:31:55;0.60;;;0.60;;
11541;SDS011;5827;49.482;7.716;2023-03-14T11:34:04;0.70;;;0.70;;
11541;SDS011;5827;49.482;7.716;2023-03-14T11:36:14;0.60;;;0.60;;
11541;SDS011;5827;49.482;7.716;2023-03-14T11:38:24;1.00;;;0.60;;
11541;SDS011;5827;49.482;7.716;2023-03-14T11:40:31;0.63;;;0.63;;
11541;SDS011;5827;49.482;7.716;2023-03-14T11:42:35;1.52;;;1.42;;
11541;SDS011;5827;49.482;7.716;2023-03-14T11:44:39;0.90;;;0.90;;
11541;SDS011;5827;49.482;7.716;2023-03-14T11:46:43;0.70;;;0.70;;
11541;SDS011;5827;49.482;7.716;2023-03-14T11:48:50;0.80;;;0.80;;
11541;SDS011;5827;49.482;7.716;2023-03-14T11:51:00;1.00;;;1.00;;
11541;SDS011;5827;49.482;7.716;2023-03-14T11:53:08;1.42;;;1.40;;
11541;SDS011;5827;49.482;7.716;2023-03-14T11:55:17;0.90;;;0.90;;
11541;SDS011;5827;49.482;7.716;2023-03-14T11:57:22;0.50;;;0.50;;
11541;SDS011;5827;49.482;7.716;2023-03-14T11:59:26;0.77;;;0.77;;
11541;SDS011;5827;49.482;7.716;2023-03-14T12:01:36;0.80;;;0.80;;
11541;SDS011;5827;49.482;7.716;2023-03-14T12:03:52;0.70;;;0.70;;
11541;SDS011;5827;49.482;7.716;2023-03-14T12:06:02;1.10;;;0.82;;
11541;SDS011;5827;49.482;7.716;2023-03-14T12:08:19;0.85;;;0.85;;
11541;SDS011;5827;49.482;7.716;2023-03-14T12:10:35;0.80;;;0.80;;
11541;SDS011;5827;49.482;7.716;2023-03-14T12:12:39;1.33;;;1.10;;
11541;SDS011;5827;49.482;7.716;2023-03-14T12:14:44;1.55;;;1.27;;
11541;SDS011;5827;49.482;7.716;2023-03-14T12:16:49;2.20;;;1.73;;
11541;SDS011;5827;49.482;7.716;2023-03-14T12:18:57;1.92;;;1.55;;
11541;SDS011;5827;49.482;7.716;2023-03-14T12:21:13;1.77;;;1.52;;
11541;SDS011;5827;49.482;7.716;2023-03-14T12:23:15;2.53;;;1.42;;
11541;SDS011;5827;49.482;7.716;2023-03-14T12:25:17;3.72;;;1.70;;
11541;SDS011;5827;49.482;7.716;2023-03-14T12:30:13;2.30;;;1.55;;
11541;SDS011;5827;49.482;7.716;2023-03-14T12:32:23;3.53;;;1.83;;
11541;SDS011;5827;49.482;7.716;2023-03-14T12:34:26;1.63;;;1.47;;
11541;SDS011;5827;49.482;7.716;2023-03-14T12:36:48;1.52;;;1.42;;